sensor_id;sensor_type;location;lat;lon;timestamp;P1;durP1;ratioP1;P2;durP2;ratioP2
9880;SDS011;4979;51.014;6.678;2023-02-19T00:02:24;6.88;;;5.38;;
9880;SDS011;4979;51.014;6.678;2023-02-19T00:04:50;4.90;;;4.30;;
9880;SDS011;4979;51.014;6.678;2023-02-19T00:07:15;6.95;;;4.32;;
9880;SDS011;4979;51.014;6.678;2023-02-19T00:09:41;6.57;;;5.78;;
9880;SDS011;4979;51.014;6.678;2023-02-19T00:12:06;6.63;;;4.88;;
9880;SDS011;4979;51.014;6.678;2023-02-19T00:14:32;7.53;;;5.35;;
9880;SDS011;4979;51.014;6.678;2023-02-19T00:16:57;5.07;;;4.55;;
9880;SDS011;4979;51.014;6.678;2023-02-19T00:19:23;5.63;;;4.60;;
9880;SDS011;4979;51.014;6.678;2023-02-19T00:21:52;5.70;;;5.00;;
9880;SDS011;4979;51.014;6.678;2023-02-19T00:24:18;6.28;;;5.22;;
9880;SDS011;4979;51.014;6.678;2023-02-19T00:26:44;5.70;;;5.13;;
9880;SDS011;4979;51.014;6.678;2023-02-19T00:29:14;5.75;;;5.10;;
9880;SDS011;4979;51.014;6.678;2023-02-19T00:31:42;12.30;;;5.55;;
9880;SDS011;4979;51.014;6.678;2023-02-19T00:34:08;5.10;;;3.70;;
9880;SDS011;4979;51.014;6.678;2023-02-19T00:36:35;8.70;;;5.47;;
9880;SDS011;4979;51.014;6.678;2023-02-19T00:39:02;5.65;;;4.93;;
9880;SDS011;4979;51.014;6.678;2023-02-19T00:41:29;9.98;;;4.85;;
9880;SDS011;4979;51.014;6.678;2023-02-19T00:43:56;6.82;;;6.13;;
9880;SDS011;4979;51.014;6.678;2023-02-19T00:46:44;8.02;;;6.22;;
9880;SDS011;4979;51.014;6.678;2023-02-19T00:49:17;9.05;;;6.05;;
9880;SDS011;4979;51.014;6.678;2023-02-19T00:51:45;7.55;;;5.93;;
9880;SDS011;4979;51.014;6.678;2023-02-19T00:54:10;4.85;;;3.85;;
9880;SDS011;4979;51.014;6.678;2023-02-19T00:56:36;6.78;;;5.10;;
9880;SDS011;4979;51.014;6.678;2023-02-19T00:59:02;5.72;;;4.70;;
9880;SDS011;4979;51.014;6.678;2023-02-19T01:01:28;4.75;;;4.18;;
9880;SDS011;4979;51.014;6.678;2023-02-19T01:03:54;5.25;;;4.32;;
9880;SDS011;4979;51.014;6.678;2023-02-19T01:06:19;4.72;;;3.97;;
9880;SDS011;4979;51.014;6.678;2023-02-19T01:08:46;5.55;;;4.88;;
9880;SDS011;4979;51.014;6.678;2023-02-19T01:11:12;5.97;;;5.32;;
9880;SDS011;4979;51.014;6.678;2023-02-19T01:13:38;4.32;;;3.33;;
9880;SDS011;4979;51.014;6.678;2023-02-19T01:16:26;7.05;;;4.65;;
9880;SDS011;4979;51.014;6.678;2023-02-19T01:18:51;8.38;;;4.95;;
9880;SDS011;4979;51.014;6.678;2023-02-19T01:21:21;8.48;;;5.22;;
9880;SDS011;4979;51.014;6.678;2023-02-19T01:23:49;7.18;;;6.35;;
9880;SDS011;4979;51.014;6.678;2023-02-19T01:26:19;8.27;;;5.65;;
9880;SDS011;4979;51.014;6.678;2023-02-19T01:28:47;7.18;;;4.97;;
9880;SDS011;4979;51.014;6.678;2023-02-19T01:31:14;6.07;;;5.03;;
9880;SDS011;4979;51.014;6.678;2023-02-19T01:33:49;7.43;;;5.43;;
9880;SDS011;4979;51.014;6.678;2023-02-19T01:36:16;5.85;;;4.63;;
9880;SDS011;4979;51.014;6.678;2023-02-19T01:38:42;4.97;;;4.43;;
9880;SDS011;4979;51.014;6.678;2023-02-19T01:41:09;5.70;;;4.50;;
9880;SDS011;4979;51.014;6.678;2023-02-19T01:43:57;5.03;;;4.38;;
9880;SDS011;4979;51.014;6.678;2023-02-19T01:46:29;7.45;;;4.68;;
9880;SDS011;4979;51.014;6.678;2023-02-19T01:49:06;5.63;;;4.97;;
9880;SDS011;4979;51.014;6.678;2023-02-19T01:51:37;6.57;;;5.25;;
9880;SDS011;4979;51.014;6.678;2023-02-19T01:54:08;6.47;;;5.00;;
9880;SDS011;4979;51.014;6.678;2023-02-19T01:56:37;6.95;;;5.55;;
9880;SDS011;4979;51.014;6.678;2023-02-19T01:59:06;7.70;;;5.88;;
9880;SDS011;4979;51.014;6.678;2023-02-19T02:01:33;7.00;;;5.55;;
9880;SDS011;4979;51.014;6.678;2023-02-19T02:03:59;6.28;;;5.18;;
9880;SDS011;4979;51.014;6.678;2023-02-19T02:06:28;14.70;;;6.30;;
9880;SDS011;4979;51.014;6.678;2023-02-19T02:08:58;7.97;;;5.55;;
9880;SDS011;4979;51.014;6.678;2023-02-19T02:11:44;9.00;;;5.45;;
9880;SDS011;4979;51.014;6.678;2023-02-19T02:14:13;9.32;;;5.45;;
9880;SDS011;4979;51.014;6.678;2023-02-19T02:16:54;7.53;;;5.07;;
9880;SDS011;4979;51.014;6.678;2023-02-19T02:35:33;11.50;;;5.35;;
9880;SDS011;4979;51.014;6.678;2023-02-19T02:38:07;7.93;;;5.32;;
9880;SDS011;4979;51.014;6.678;2023-02-19T02:40:35;9.90;;;5.80;;
9880;SDS011;4979;51.014;6.678;2023-02-19T02:43:04;12.07;;;6.43;;
9880;SDS011;4979;51.014;6.678;2023-02-19T02:45:31;6.32;;;4.95;;
9880;SDS011;4979;51.014;6.678;2023-02-19T02:48:08;7.07;;;4.72;;
9880;SDS011;4979;51.014;6.678;2023-02-19T02:50:55;8.40;;;5.40;;
9880;SDS011;4979;51.014;6.678;2023-02-19T02:56:33;8.95;;;5.68;;
9880;SDS011;4979;51.014;6.678;2023-02-19T02:59:00;8.25;;;5.35;;
9880;SDS011;4979;51.014;6.678;2023-02-19T03:01:30;7.70;;;6.03;;
9880;SDS011;4979;51.014;6.678;2023-02-19T03:04:32;9.40;;;5.85;;
9880;SDS011;4979;51.014;6.678;2023-02-19T03:06:59;12.45;;;6.65;;
9880;SDS011;4979;51.014;6.678;2023-02-19T03:09:31;9.65;;;6.20;;
9880;SDS011;4979;51.014;6.678;2023-02-19T03:12:05;10.65;;;6.10;;
9880;SDS011;4979;51.014;6.678;2023-02-19T03:14:56;13.80;;;7.20;;
9880;SDS011;4979;51.014;6.678;2023-02-19T03:17:50;10.10;;;7.53;;
9880;SDS011;4979;51.014;6.678;2023-02-19T03:20:37;9.93;;;7.78;;
9880;SDS011;4979;51.014;6.678;2023-02-19T03:23:06;11.50;;;6.35;;
9880;SDS011;4979;51.014;6.678;2023-02-19T03:25:34;16.58;;;8.05;;
9880;SDS011;4979;51.014;6.678;2023-02-19T03:28:20;12.38;;;6.80;;
9880;SDS011;4979;51.014;6.678;2023-02-19T03:31:12;10.13;;;7.43;;
9880;SDS011;4979;51.014;6.678;2023-02-19T03:33:42;17.02;;;6.45;;
9880;SDS011;4979;51.014;6.678;2023-02-19T03:36:11;13.80;;;8.30;;
9880;SDS011;4979;51.014;6.678;2023-02-19T03:41:19;13.48;;;7.78;;
9880;SDS011;4979;51.014;6.678;2023-02-19T03:46:33;14.05;;;6.75;;
9880;SDS011;4979;51.014;6.678;2023-02-19T03:49:28;10.68;;;6.30;;
9880;SDS011;4979;51.014;6.678;2023-02-19T03:52:07;18.48;;;8.63;;
9880;SDS011;4979;51.014;6.678;2023-02-19T03:54:37;13.23;;;8.50;;
9880;SDS011;4979;51.014;6.678;2023-02-19T03:57:23;14.63;;;8.05;;
9880;SDS011;4979;51.014;6.678;2023-02-19T03:59:58;14.50;;;8.50;;
9880;SDS011;4979;51.014;6.678;2023-02-19T04:02:47;16.35;;;9.05;;
9880;SDS011;4979;51.014;6.678;2023-02-19T04:05:21;15.25;;;8.80;;
9880;SDS011;4979;51.014;6.678;2023-02-19T04:07:52;14.30;;;8.30;;
9880;SDS011;4979;51.014;6.678;2023-02-19T04:10:20;15.57;;;9.15;;
9880;SDS011;4979;51.014;6.678;2023-02-19T04:12:52;16.90;;;9.23;;
9880;SDS011;4979;51.014;6.678;2023-02-19T04:15:23;20.02;;;9.07;;
9880;SDS011;4979;51.014;6.678;2023-02-19T04:18:25;15.90;;;9.13;;
9880;SDS011;4979;51.014;6.678;2023-02-19T04:20:46;17.77;;;10.30;;
9880;SDS011;4979;51.014;6.678;2023-02-19T04:23:12;16.90;;;10.25;;
9880;SDS011;4979;51.014;6.678;2023-02-19T04:25:42;18.85;;;10.07;;
9880;SDS011;4979;51.014;6.678;2023-02-19T04:28:13;16.70;;;10.68;;
9880;SDS011;4979;51.014;6.678;2023-02-19T04:30:40;20.70;;;10.07;;
9880;SDS011;4979;51.014;6.678;2023-02-19T04:33:06;14.70;;;9.88;;
9880;SDS011;4979;51.014;6.678;2023-02-19T04:35:32;21.75;;;10.15;;
9880;SDS011;4979;51.014;6.678;2023-02-19T04:37:57;21.08;;;10.30;;
9880;SDS011;4979;51.014;6.678;2023-02-19T04:40:23;18.67;;;10.40;;
9880;SDS011;4979;51.014;6.678;2023-02-19T04:42:48;16.65;;;9.68;;
9880;SDS011;4979;51.014;6.678;2023-02-19T04:45:14;16.45;;;9.27;;
9880;SDS011;4979;51.014;6.678;2023-02-19T04:47:39;17.30;;;10.07;;
9880;SDS011;4979;51.014;6.678;2023-02-19T04:50:05;16.15;;;10.95;;
9880;SDS011;4979;51.014;6.678;2023-02-19T04:52:31;20.35;;;11.55;;
9880;SDS011;4979;51.014;6.678;2023-02-19T04:54:57;16.27;;;10.93;;
9880;SDS011;4979;51.014;6.678;2023-02-19T04:57:22;16.65;;;10.50;;
9880;SDS011;4979;51.014;6.678;2023-02-19T04:59:48;18.30;;;10.70;;
9880;SDS011;4979;51.014;6.678;2023-02-19T05:02:14;18.13;;;11.15;;
9880;SDS011;4979;51.014;6.678;2023-02-19T05:04:39;15.45;;;9.15;;
9880;SDS011;4979;51.014;6.678;2023-02-19T05:07:05;16.05;;;9.90;;
9880;SDS011;4979;51.014;6.678;2023-02-19T05:09:30;17.45;;;10.30;;
9880;SDS011;4979;51.014;6.678;2023-02-19T05:11:56;15.63;;;10.15;;
9880;SDS011;4979;51.014;6.678;2023-02-19T05:14:22;18.10;;;8.90;;
9880;SDS011;4979;51.014;6.678;2023-02-19T05:16:47;17.05;;;8.88;;
9880;SDS011;4979;51.014;6.678;2023-02-19T05:19:13;15.93;;;9.38;;
9880;SDS011;4979;51.014;6.678;2023-02-19T05:21:38;17.38;;;11.23;;
9880;SDS011;4979;51.014;6.678;2023-02-19T05:24:05;15.90;;;10.10;;
9880;SDS011;4979;51.014;6.678;2023-02-19T05:26:31;18.45;;;9.43;;
9880;SDS011;4979;51.014;6.678;2023-02-19T05:28:56;16.20;;;10.00;;
9880;SDS011;4979;51.014;6.678;2023-02-19T05:31:23;16.90;;;10.57;;
9880;SDS011;4979;51.014;6.678;2023-02-19T05:33:49;21.70;;;12.75;;
9880;SDS011;4979;51.014;6.678;2023-02-19T05:36:17;18.85;;;12.38;;
9880;SDS011;4979;51.014;6.678;2023-02-19T05:38:44;17.58;;;11.77;;
9880;SDS011;4979;51.014;6.678;2023-02-19T05:41:17;21.52;;;12.38;;
9880;SDS011;4979;51.014;6.678;2023-02-19T05:43:44;17.92;;;11.05;;
9880;SDS011;4979;51.014;6.678;2023-02-19T05:46:12;19.20;;;11.23;;
9880;SDS011;4979;51.014;6.678;2023-02-19T05:48:39;22.35;;;12.07;;
9880;SDS011;4979;51.014;6.678;2023-02-19T05:51:06;14.25;;;9.40;;
9880;SDS011;4979;51.014;6.678;2023-02-19T05:53:36;14.10;;;9.57;;
9880;SDS011;4979;51.014;6.678;2023-02-19T05:56:02;18.15;;;9.50;;
9880;SDS011;4979;51.014;6.678;2023-02-19T05:58:28;17.00;;;10.48;;
9880;SDS011;4979;51.014;6.678;2023-02-19T06:00:54;21.80;;;10.63;;
9880;SDS011;4979;51.014;6.678;2023-02-19T06:03:21;23.27;;;12.70;;
9880;SDS011;4979;51.014;6.678;2023-02-19T06:05:46;16.92;;;10.65;;
9880;SDS011;4979;51.014;6.678;2023-02-19T06:08:12;19.05;;;9.88;;
9880;SDS011;4979;51.014;6.678;2023-02-19T06:10:39;14.90;;;9.55;;
9880;SDS011;4979;51.014;6.678;2023-02-19T06:13:08;20.65;;;11.18;;
9880;SDS011;4979;51.014;6.678;2023-02-19T06:15:34;21.75;;;11.43;;
9880;SDS011;4979;51.014;6.678;2023-02-19T06:18:00;17.08;;;10.52;;
9880;SDS011;4979;51.014;6.678;2023-02-19T06:20:27;21.42;;;11.27;;
9880;SDS011;4979;51.014;6.678;2023-02-19T06:22:53;19.52;;;10.40;;
9880;SDS011;4979;51.014;6.678;2023-02-19T06:25:18;19.05;;;10.98;;
9880;SDS011;4979;51.014;6.678;2023-02-19T06:27:44;15.20;;;9.27;;
9880;SDS011;4979;51.014;6.678;2023-02-19T06:30:10;24.65;;;10.95;;
9880;SDS011;4979;51.014;6.678;2023-02-19T06:32:36;16.15;;;10.73;;
9880;SDS011;4979;51.014;6.678;2023-02-19T06:35:02;23.80;;;10.52;;
9880;SDS011;4979;51.014;6.678;2023-02-19T06:37:28;13.23;;;7.53;;
9880;SDS011;4979;51.014;6.678;2023-02-19T06:39:54;16.30;;;9.27;;
9880;SDS011;4979;51.014;6.678;2023-02-19T06:42:20;17.73;;;7.85;;
9880;SDS011;4979;51.014;6.678;2023-02-19T06:44:45;18.15;;;9.30;;
9880;SDS011;4979;51.014;6.678;2023-02-19T06:47:11;13.25;;;7.38;;
9880;SDS011;4979;51.014;6.678;2023-02-19T06:49:37;19.90;;;8.48;;
9880;SDS011;4979;51.014;6.678;2023-02-19T06:52:04;12.45;;;7.90;;
9880;SDS011;4979;51.014;6.678;2023-02-19T06:54:29;16.27;;;7.57;;
9880;SDS011;4979;51.014;6.678;2023-02-19T06:56:57;15.75;;;8.68;;
9880;SDS011;4979;51.014;6.678;2023-02-19T06:59:23;18.67;;;8.95;;
9880;SDS011;4979;51.014;6.678;2023-02-19T07:01:49;9.23;;;5.75;;
9880;SDS011;4979;51.014;6.678;2023-02-19T07:04:14;12.68;;;6.65;;
9880;SDS011;4979;51.014;6.678;2023-02-19T07:06:40;18.17;;;9.07;;
9880;SDS011;4979;51.014;6.678;2023-02-19T07:09:06;16.08;;;8.65;;
9880;SDS011;4979;51.014;6.678;2023-02-19T07:11:33;16.23;;;8.57;;
9880;SDS011;4979;51.014;6.678;2023-02-19T07:14:01;13.80;;;6.80;;
9880;SDS011;4979;51.014;6.678;2023-02-19T07:16:28;13.88;;;7.47;;
9880;SDS011;4979;51.014;6.678;2023-02-19T07:18:55;17.23;;;7.90;;
9880;SDS011;4979;51.014;6.678;2023-02-19T07:21:22;17.75;;;8.95;;
9880;SDS011;4979;51.014;6.678;2023-02-19T07:23:48;13.80;;;7.45;;
9880;SDS011;4979;51.014;6.678;2023-02-19T07:26:14;13.05;;;7.47;;
9880;SDS011;4979;51.014;6.678;2023-02-19T07:28:42;14.82;;;9.40;;
9880;SDS011;4979;51.014;6.678;2023-02-19T07:31:08;22.13;;;9.02;;
9880;SDS011;4979;51.014;6.678;2023-02-19T07:33:34;14.98;;;7.18;;
9880;SDS011;4979;51.014;6.678;2023-02-19T07:36:00;14.13;;;8.48;;
9880;SDS011;4979;51.014;6.678;2023-02-19T07:38:26;17.77;;;7.30;;
9880;SDS011;4979;51.014;6.678;2023-02-19T07:40:56;9.45;;;5.78;;
9880;SDS011;4979;51.014;6.678;2023-02-19T07:43:24;21.75;;;7.97;;
9880;SDS011;4979;51.014;6.678;2023-02-19T07:45:51;12.65;;;7.40;;
9880;SDS011;4979;51.014;6.678;2023-02-19T07:48:17;18.38;;;7.82;;
9880;SDS011;4979;51.014;6.678;2023-02-19T07:50:56;20.17;;;8.27;;
9880;SDS011;4979;51.014;6.678;2023-02-19T07:53:24;17.60;;;7.45;;
9880;SDS011;4979;51.014;6.678;2023-02-19T07:55:50;13.50;;;6.30;;
9880;SDS011;4979;51.014;6.678;2023-02-19T07:58:16;17.83;;;7.25;;
9880;SDS011;4979;51.014;6.678;2023-02-19T08:00:42;13.65;;;7.25;;
9880;SDS011;4979;51.014;6.678;2023-02-19T08:03:08;18.45;;;7.32;;
9880;SDS011;4979;51.014;6.678;2023-02-19T08:05:38;13.95;;;6.30;;
9880;SDS011;4979;51.014;6.678;2023-02-19T08:08:05;20.52;;;7.53;;
9880;SDS011;4979;51.014;6.678;2023-02-19T08:10:36;16.73;;;6.18;;
9880;SDS011;4979;51.014;6.678;2023-02-19T08:13:20;15.93;;;6.70;;
9880;SDS011;4979;51.014;6.678;2023-02-19T08:15:55;13.23;;;5.88;;
9880;SDS011;4979;51.014;6.678;2023-02-19T08:18:34;10.27;;;4.90;;
9880;SDS011;4979;51.014;6.678;2023-02-19T08:20:59;20.95;;;6.70;;
9880;SDS011;4979;51.014;6.678;2023-02-19T08:23:25;13.32;;;5.38;;
9880;SDS011;4979;51.014;6.678;2023-02-19T08:25:52;12.13;;;4.85;;
9880;SDS011;4979;51.014;6.678;2023-02-19T08:28:20;19.55;;;6.53;;
9880;SDS011;4979;51.014;6.678;2023-02-19T08:30:46;13.18;;;4.22;;
9880;SDS011;4979;51.014;6.678;2023-02-19T08:33:13;11.02;;;6.03;;
9880;SDS011;4979;51.014;6.678;2023-02-19T08:35:44;18.02;;;6.32;;
9880;SDS011;4979;51.014;6.678;2023-02-19T08:38:10;18.05;;;5.75;;
9880;SDS011;4979;51.014;6.678;2023-02-19T08:40:37;11.82;;;5.60;;
9880;SDS011;4979;51.014;6.678;2023-02-19T08:43:07;13.52;;;4.68;;
9880;SDS011;4979;51.014;6.678;2023-02-19T08:45:38;14.27;;;4.55;;
9880;SDS011;4979;51.014;6.678;2023-02-19T08:48:05;17.40;;;5.60;;
9880;SDS011;4979;51.014;6.678;2023-02-19T08:50:31;14.82;;;5.05;;
9880;SDS011;4979;51.014;6.678;2023-02-19T08:52:58;10.15;;;4.80;;
9880;SDS011;4979;51.014;6.678;2023-02-19T08:55:24;13.43;;;5.22;;
9880;SDS011;4979;51.014;6.678;2023-02-19T08:57:49;14.38;;;6.13;;
9880;SDS011;4979;51.014;6.678;2023-02-19T09:00:15;9.88;;;4.70;;
9880;SDS011;4979;51.014;6.678;2023-02-19T09:02:41;11.15;;;4.45;;
9880;SDS011;4979;51.014;6.678;2023-02-19T09:05:07;13.95;;;4.32;;
9880;SDS011;4979;51.014;6.678;2023-02-19T09:07:32;13.70;;;4.35;;
9880;SDS011;4979;51.014;6.678;2023-02-19T09:09:59;13.32;;;4.38;;
9880;SDS011;4979;51.014;6.678;2023-02-19T09:12:25;7.15;;;3.92;;
9880;SDS011;4979;51.014;6.678;2023-02-19T09:14:51;13.38;;;5.03;;
9880;SDS011;4979;51.014;6.678;2023-02-19T09:17:16;9.77;;;4.40;;
9880;SDS011;4979;51.014;6.678;2023-02-19T09:19:42;14.27;;;5.75;;
9880;SDS011;4979;51.014;6.678;2023-02-19T09:22:08;12.43;;;4.57;;
9880;SDS011;4979;51.014;6.678;2023-02-19T09:24:33;12.63;;;4.30;;
9880;SDS011;4979;51.014;6.678;2023-02-19T09:26:59;17.23;;;4.93;;
9880;SDS011;4979;51.014;6.678;2023-02-19T09:29:25;9.48;;;4.07;;
9880;SDS011;4979;51.014;6.678;2023-02-19T09:31:58;12.68;;;4.97;;
9880;SDS011;4979;51.014;6.678;2023-02-19T09:34:25;8.40;;;3.50;;
9880;SDS011;4979;51.014;6.678;2023-02-19T09:36:51;11.55;;;4.32;;
9880;SDS011;4979;51.014;6.678;2023-02-19T09:39:17;7.82;;;3.90;;
9880;SDS011;4979;51.014;6.678;2023-02-19T09:44:20;14.02;;;5.07;;
9880;SDS011;4979;51.014;6.678;2023-02-19T09:46:50;9.70;;;4.57;;
9880;SDS011;4979;51.014;6.678;2023-02-19T09:49:18;8.32;;;4.05;;
9880;SDS011;4979;51.014;6.678;2023-02-19T09:51:52;11.77;;;4.93;;
9880;SDS011;4979;51.014;6.678;2023-02-19T09:54:26;14.20;;;5.03;;
9880;SDS011;4979;51.014;6.678;2023-02-19T09:56:54;18.85;;;5.22;;
9880;SDS011;4979;51.014;6.678;2023-02-19T09:59:40;10.98;;;4.05;;
9880;SDS011;4979;51.014;6.678;2023-02-19T10:02:23;7.50;;;4.10;;
9880;SDS011;4979;51.014;6.678;2023-02-19T10:04:51;8.73;;;4.05;;
9880;SDS011;4979;51.014;6.678;2023-02-19T10:07:21;12.18;;;5.03;;
9880;SDS011;4979;51.014;6.678;2023-02-19T10:09:56;13.30;;;4.57;;
9880;SDS011;4979;51.014;6.678;2023-02-19T10:12:27;12.98;;;4.82;;
9880;SDS011;4979;51.014;6.678;2023-02-19T10:14:57;6.82;;;4.60;;
9880;SDS011;4979;51.014;6.678;2023-02-19T10:17:35;9.70;;;4.10;;
9880;SDS011;4979;51.014;6.678;2023-02-19T10:20:01;14.02;;;5.47;;
9880;SDS011;4979;51.014;6.678;2023-02-19T10:22:28;13.27;;;5.10;;
9880;SDS011;4979;51.014;6.678;2023-02-19T10:24:59;10.07;;;4.63;;
9880;SDS011;4979;51.014;6.678;2023-02-19T10:27:27;9.15;;;5.05;;
9880;SDS011;4979;51.014;6.678;2023-02-19T10:29:55;8.57;;;4.65;;
9880;SDS011;4979;51.014;6.678;2023-02-19T10:32:22;10.88;;;5.20;;
9880;SDS011;4979;51.014;6.678;2023-02-19T10:35:06;11.52;;;4.90;;
9880;SDS011;4979;51.014;6.678;2023-02-19T10:37:46;15.90;;;5.57;;
9880;SDS011;4979;51.014;6.678;2023-02-19T10:40:15;11.38;;;7.15;;
9880;SDS011;4979;51.014;6.678;2023-02-19T10:42:44;8.18;;;4.63;;
9880;SDS011;4979;51.014;6.678;2023-02-19T10:45:24;8.95;;;5.18;;
9880;SDS011;4979;51.014;6.678;2023-02-19T10:48:27;6.43;;;4.45;;
9880;SDS011;4979;51.014;6.678;2023-02-19T10:50:57;14.00;;;5.07;;
9880;SDS011;4979;51.014;6.678;2023-02-19T10:53:39;10.02;;;5.07;;
9880;SDS011;4979;51.014;6.678;2023-02-19T10:56:13;10.57;;;4.80;;
9880;SDS011;4979;51.014;6.678;2023-02-19T10:58:40;9.68;;;5.22;;
9880;SDS011;4979;51.014;6.678;2023-02-19T11:01:18;10.40;;;5.18;;
9880;SDS011;4979;51.014;6.678;2023-02-19T11:03:45;9.52;;;3.63;;
9880;SDS011;4979;51.014;6.678;2023-02-19T11:06:13;13.35;;;5.93;;
9880;SDS011;4979;51.014;6.678;2023-02-19T11:08:47;9.65;;;5.22;;
9880;SDS011;4979;51.014;6.678;2023-02-19T11:11:29;13.05;;;5.07;;
9880;SDS011;4979;51.014;6.678;2023-02-19T11:14:04;8.80;;;5.53;;
9880;SDS011;4979;51.014;6.678;2023-02-19T11:21:46;6.32;;;3.72;;
9880;SDS011;4979;51.014;6.678;2023-02-19T11:24:20;10.02;;;4.78;;
9880;SDS011;4979;51.014;6.678;2023-02-19T11:26:53;10.55;;;4.40;;
9880;SDS011;4979;51.014;6.678;2023-02-19T11:29:20;6.80;;;4.70;;
9880;SDS011;4979;51.014;6.678;2023-02-19T11:31:48;7.97;;;4.63;;
9880;SDS011;4979;51.014;6.678;2023-02-19T11:36:45;9.00;;;5.50;;
9880;SDS011;4979;51.014;6.678;2023-02-19T11:47:24;7.00;;;3.65;;
9880;SDS011;4979;51.014;6.678;2023-02-19T11:49:54;8.77;;;4.22;;
9880;SDS011;4979;51.014;6.678;2023-02-19T11:52:51;9.05;;;3.33;;
9880;SDS011;4979;51.014;6.678;2023-02-19T11:56:20;8.55;;;3.97;;
9880;SDS011;4979;51.014;6.678;2023-02-19T11:58:59;11.93;;;4.30;;
9880;SDS011;4979;51.014;6.678;2023-02-19T12:07:15;6.50;;;3.20;;
9880;SDS011;4979;51.014;6.678;2023-02-19T12:13:23;8.88;;;3.45;;
9880;SDS011;4979;51.014;6.678;2023-02-19T12:16:14;6.72;;;4.05;;
9880;SDS011;4979;51.014;6.678;2023-02-19T12:19:00;10.20;;;4.10;;
9880;SDS011;4979;51.014;6.678;2023-02-19T12:29:55;8.68;;;3.70;;
9880;SDS011;4979;51.014;6.678;2023-02-19T12:37:51;7.13;;;3.13;;
9880;SDS011;4979;51.014;6.678;2023-02-19T12:43:18;6.63;;;3.53;;
9880;SDS011;4979;51.014;6.678;2023-02-19T12:51:19;6.88;;;3.60;;
9880;SDS011;4979;51.014;6.678;2023-02-19T12:53:58;5.80;;;3.80;;
9880;SDS011;4979;51.014;6.678;2023-02-19T12:56:47;8.30;;;3.88;;
9880;SDS011;4979;51.014;6.678;2023-02-19T12:59:28;4.15;;;2.72;;
9880;SDS011;4979;51.014;6.678;2023-02-19T13:04:51;1.98;;;1.80;;
9880;SDS011;4979;51.014;6.678;2023-02-19T13:07:27;4.82;;;2.60;;
9880;SDS011;4979;51.014;6.678;2023-02-19T13:12:36;5.70;;;2.65;;
9880;SDS011;4979;51.014;6.678;2023-02-19T13:15:13;3.97;;;2.33;;
9880;SDS011;4979;51.014;6.678;2023-02-19T13:17:52;6.63;;;2.80;;
9880;SDS011;4979;51.014;6.678;2023-02-19T13:20:30;3.95;;;2.90;;
9880;SDS011;4979;51.014;6.678;2023-02-19T13:34:04;8.32;;;3.83;;
9880;SDS011;4979;51.014;6.678;2023-02-19T13:36:52;5.75;;;4.15;;
9880;SDS011;4979;51.014;6.678;2023-02-19T13:39:19;8.45;;;4.53;;
9880;SDS011;4979;51.014;6.678;2023-02-19T13:41:49;8.93;;;5.18;;
9880;SDS011;4979;51.014;6.678;2023-02-19T13:44:21;8.35;;;4.65;;
9880;SDS011;4979;51.014;6.678;2023-02-19T13:46:49;7.05;;;5.88;;
9880;SDS011;4979;51.014;6.678;2023-02-19T13:52:01;10.10;;;5.18;;
9880;SDS011;4979;51.014;6.678;2023-02-19T13:54:45;6.38;;;5.18;;
9880;SDS011;4979;51.014;6.678;2023-02-19T13:59:46;5.93;;;4.80;;
9880;SDS011;4979;51.014;6.678;2023-02-19T14:09:51;8.38;;;5.38;;
9880;SDS011;4979;51.014;6.678;2023-02-19T14:12:19;10.20;;;4.63;;
9880;SDS011;4979;51.014;6.678;2023-02-19T14:20:00;7.78;;;4.57;;
9880;SDS011;4979;51.014;6.678;2023-02-19T14:30:56;12.32;;;4.85;;
9880;SDS011;4979;51.014;6.678;2023-02-19T14:33:48;10.25;;;6.57;;
9880;SDS011;4979;51.014;6.678;2023-02-19T14:38:54;12.23;;;5.95;;
9880;SDS011;4979;51.014;6.678;2023-02-19T14:41:22;9.43;;;6.50;;
9880;SDS011;4979;51.014;6.678;2023-02-19T14:43:49;9.43;;;6.22;;
9880;SDS011;4979;51.014;6.678;2023-02-19T14:46:20;12.05;;;7.63;;
9880;SDS011;4979;51.014;6.678;2023-02-19T14:48:48;14.85;;;6.90;;
9880;SDS011;4979;51.014;6.678;2023-02-19T14:51:26;12.52;;;7.40;;
9880;SDS011;4979;51.014;6.678;2023-02-19T14:54:08;11.90;;;7.25;;
9880;SDS011;4979;51.014;6.678;2023-02-19T14:56:38;9.02;;;6.80;;
9880;SDS011;4979;51.014;6.678;2023-02-19T15:01:44;15.98;;;6.95;;
9880;SDS011;4979;51.014;6.678;2023-02-19T15:04:20;13.43;;;7.88;;
9880;SDS011;4979;51.014;6.678;2023-02-19T15:06:48;6.95;;;6.22;;
9880;SDS011;4979;51.014;6.678;2023-02-19T15:09:16;10.80;;;7.20;;
9880;SDS011;4979;51.014;6.678;2023-02-19T15:11:43;10.93;;;6.57;;
9880;SDS011;4979;51.014;6.678;2023-02-19T15:14:16;17.73;;;8.27;;
9880;SDS011;4979;51.014;6.678;2023-02-19T15:16:45;16.98;;;7.75;;
9880;SDS011;4979;51.014;6.678;2023-02-19T15:19:11;13.55;;;8.77;;
9880;SDS011;4979;51.014;6.678;2023-02-19T15:21:43;18.73;;;6.97;;
9880;SDS011;4979;51.014;6.678;2023-02-19T15:24:12;12.60;;;7.90;;
9880;SDS011;4979;51.014;6.678;2023-02-19T15:26:41;12.52;;;7.07;;
9880;SDS011;4979;51.014;6.678;2023-02-19T15:29:14;13.98;;;7.28;;
9880;SDS011;4979;51.014;6.678;2023-02-19T15:31:46;15.77;;;7.00;;
9880;SDS011;4979;51.014;6.678;2023-02-19T15:34:23;13.32;;;7.43;;
9880;SDS011;4979;51.014;6.678;2023-02-19T15:36:51;13.00;;;7.63;;
9880;SDS011;4979;51.014;6.678;2023-02-19T15:39:25;14.02;;;7.25;;
9880;SDS011;4979;51.014;6.678;2023-02-19T15:41:58;10.45;;;7.22;;
9880;SDS011;4979;51.014;6.678;2023-02-19T15:44:30;13.55;;;7.70;;
9880;SDS011;4979;51.014;6.678;2023-02-19T15:49:54;14.05;;;6.95;;
9880;SDS011;4979;51.014;6.678;2023-02-19T15:52:32;14.35;;;6.95;;
9880;SDS011;4979;51.014;6.678;2023-02-19T15:55:18;13.23;;;7.40;;
9880;SDS011;4979;51.014;6.678;2023-02-19T15:57:51;15.02;;;8.13;;
9880;SDS011;4979;51.014;6.678;2023-02-19T16:00:35;11.80;;;6.72;;
9880;SDS011;4979;51.014;6.678;2023-02-19T16:03:21;17.13;;;7.90;;
9880;SDS011;4979;51.014;6.678;2023-02-19T16:06:07;13.75;;;6.80;;
9880;SDS011;4979;51.014;6.678;2023-02-19T16:08:40;11.55;;;6.72;;
9880;SDS011;4979;51.014;6.678;2023-02-19T16:13:49;10.68;;;7.55;;
9880;SDS011;4979;51.014;6.678;2023-02-19T16:16:25;12.23;;;6.75;;
9880;SDS011;4979;51.014;6.678;2023-02-19T16:18:53;14.13;;;7.13;;
9880;SDS011;4979;51.014;6.678;2023-02-19T16:21:21;15.20;;;9.40;;
9880;SDS011;4979;51.014;6.678;2023-02-19T16:23:50;18.80;;;8.40;;
9880;SDS011;4979;51.014;6.678;2023-02-19T16:26:20;15.27;;;9.30;;
9880;SDS011;4979;51.014;6.678;2023-02-19T16:28:49;14.57;;;8.10;;
9880;SDS011;4979;51.014;6.678;2023-02-19T16:31:16;14.20;;;8.68;;
9880;SDS011;4979;51.014;6.678;2023-02-19T16:33:46;12.38;;;7.07;;
9880;SDS011;4979;51.014;6.678;2023-02-19T16:41:34;12.23;;;7.75;;
9880;SDS011;4979;51.014;6.678;2023-02-19T16:46:50;14.68;;;8.80;;
9880;SDS011;4979;51.014;6.678;2023-02-19T16:49:19;12.00;;;7.63;;
9880;SDS011;4979;51.014;6.678;2023-02-19T16:51:46;14.57;;;8.23;;
9880;SDS011;4979;51.014;6.678;2023-02-19T16:54:12;12.73;;;8.25;;
9880;SDS011;4979;51.014;6.678;2023-02-19T16:56:37;15.25;;;8.43;;
9880;SDS011;4979;51.014;6.678;2023-02-19T16:59:03;9.57;;;6.63;;
9880;SDS011;4979;51.014;6.678;2023-02-19T17:01:30;10.77;;;6.95;;
9880;SDS011;4979;51.014;6.678;2023-02-19T17:04:01;9.50;;;6.13;;
9880;SDS011;4979;51.014;6.678;2023-02-19T17:06:28;10.95;;;6.20;;
9880;SDS011;4979;51.014;6.678;2023-02-19T17:08:56;5.40;;;4.15;;
9880;SDS011;4979;51.014;6.678;2023-02-19T17:11:23;5.65;;;4.05;;
9880;SDS011;4979;51.014;6.678;2023-02-19T17:13:48;4.45;;;3.17;;
9880;SDS011;4979;51.014;6.678;2023-02-19T17:16:18;8.27;;;4.32;;
9880;SDS011;4979;51.014;6.678;2023-02-19T17:18:46;3.33;;;2.78;;
9880;SDS011;4979;51.014;6.678;2023-02-19T17:21:17;3.47;;;2.80;;
9880;SDS011;4979;51.014;6.678;2023-02-19T17:23:45;4.50;;;2.28;;
9880;SDS011;4979;51.014;6.678;2023-02-19T17:26:17;2.58;;;2.13;;
9880;SDS011;4979;51.014;6.678;2023-02-19T17:28:45;4.05;;;2.40;;
9880;SDS011;4979;51.014;6.678;2023-02-19T17:31:11;4.28;;;1.80;;
9880;SDS011;4979;51.014;6.678;2023-02-19T17:33:38;3.40;;;1.95;;
9880;SDS011;4979;51.014;6.678;2023-02-19T17:36:04;2.08;;;1.95;;
9880;SDS011;4979;51.014;6.678;2023-02-19T17:38:31;2.67;;;1.67;;
9880;SDS011;4979;51.014;6.678;2023-02-19T17:40:57;1.63;;;1.52;;
9880;SDS011;4979;51.014;6.678;2023-02-19T17:43:22;1.38;;;1.17;;